Goch-Asperden Airport

EDLG · Renania Settentrionale-Vestfalia, Germania

Storia di METAR EDLG · Goch-Asperden Airport

Di seguito sono riportati i METAR degli ultimi giorni. Seleziona un anno per sfogliare i METAR più vecchi, dall'anno 2007 in poi.

21 febbraio 2024

Tempo Codice Tempo meteorologico Temp. Vista Base nuvolosa Vento METAR/SPECI
01:20
M
9 °C 10 km+ 2.900 ft 210° 210° 10 kt METAR EDLV 210020Z AUTO 21010KT 9999 // FEW016/// OVC029/// 09/06 Q1022
00:50
M
9 °C 10 km+ 2.300 ft 220° 220° 10 kt METAR EDLV 202350Z AUTO 22010KT 9999 // SCT016/// BKN023/// OVC029/// 09/06 Q1022
00:20
M
9 °C 10 km+ 2.900 ft 220° 220° 11 kt METAR EDLV 202320Z AUTO 22011KT 9999 // FEW016/// SCT019/// OVC029/// 09/06 Q1023

20 febbraio 2024

Tempo Codice Tempo meteorologico Temp. Vista Base nuvolosa Vento METAR/SPECI
23:50
M
9 °C 10 km+ 1.700 ft 210° 210° 12 kt METAR EDLV 202250Z AUTO 21012KT 9999 // BKN017/// OVC023/// 09/06 Q1023
23:20
M
9 °C 10 km+ 2.200 ft 210° 210° 12 kt METAR EDLV 202220Z 21012KT 9999 SCT017 OVC022 09/06 Q1023
22:50
M
9 °C 10 km+ 1.700 ft 210° 210° 13 kt METAR EDLV 202150Z 21013KT 9999 OVC017 09/06 Q1024
22:20
M
9 °C 10 km+ 1.600 ft 200° 200° 11 kt METAR EDLV 202120Z 20011KT 9999 BKN016 OVC019 09/06 Q1024
21:50
M
9 °C 10 km+ 1.700 ft 200° 200° 12 kt METAR EDLV 202050Z 20012KT 9999 OVC017 09/06 Q1024
21:20
M
9 °C 10 km+ 1.700 ft 210° 210° 12 kt METAR EDLV 202020Z 21012KT 9999 OVC017 09/06 Q1024
20:50
M
9 °C 10 km+ 1.800 ft 200° 200° 11 kt METAR EDLV 201950Z 20011KT 9999 OVC018 09/05 Q1024
20:20
M
9 °C 10 km+ 1.800 ft 210° 210° 13 kt METAR EDLV 201920Z 21013KT 9999 OVC018 09/05 Q1024
19:50
M
9 °C 10 km+ 1.900 ft 210° 210° 12 kt METAR EDLV 201850Z 21012KT 9999 OVC019 09/06 Q1025
19:20
M
9 °C 10 km+ 2.100 ft 210° 210° 12 kt METAR EDLV 201820Z 21012KT 9999 OVC021 09/06 Q1025
18:50
V
9 °C 10 km+ - 220° 220° 12 kt METAR EDLV 201750Z 22012KT 9999 FEW022 SCT027 09/05 Q1025
18:20
V
10 °C 10 km+ - 220° 220° 12 kt METAR EDLV 201720Z 22012KT CAVOK 10/05 Q1025
17:50
V
10 °C 10 km+ - 220° 220° 8 kt METAR EDLV 201650Z 22008KT 9999 FEW025 10/05 Q1025
17:20
V
10 °C 10 km+ - 230° 230° 10 kt METAR EDLV 201620Z 23010KT CAVOK 10/05 Q1025
16:50
V
11 °C 10 km+ - 230° 230° 13 kt METAR EDLV 201550Z 23013KT CAVOK 11/05 Q1025
16:20
V
12 °C 10 km+ - 220° 220° 12 kt METAR EDLV 201520Z 22012KT 190V250 CAVOK 12/05 Q1025
15:50
V
12 °C 10 km+ - 210° 210° 11 kt METAR EDLV 201450Z 21011KT 9999 FEW031 12/06 Q1025
15:20
M
11 °C 10 km+ 2.800 ft 220° 220° 12 kt METAR EDLV 201420Z 22012KT 9999 BKN028 11/06 Q1025
14:50
M
11 °C 10 km+ 2.500 ft 210° 210° 11 kt METAR EDLV 201350Z 21011KT 9999 BKN025 11/07 Q1025
14:20
V
11 °C 10 km+ - 210° 210° 12 kt METAR EDLV 201320Z 21012KT 9999 FEW022 11/06 Q1026
13:50
V
10 °C 10 km+ - 210° 210° 12 kt METAR EDLV 201250Z 21012KT CAVOK 10/07 Q1026
13:20
V
10 °C 10 km+ - 210° 210° 11 kt METAR EDLV 201220Z 21011KT CAVOK 10/07 Q1027
12:50
V
10 °C 10 km+ - 210° 210° 10 kt METAR EDLV 201150Z 21010KT 9999 FEW013 10/07 Q1027
12:20
V
9 °C 10 km+ - 210° 210° 9 kt METAR EDLV 201120Z 21009KT 9999 FEW012 09/07 Q1028
11:50
V
9 °C 9 km - 200° 200° 10 kt METAR EDLV 201050Z 20010KT 9000 FEW011 09/07 Q1028
11:20
V
8 °C 9 km - 210° 210° 7 kt METAR EDLV 201020Z 21007KT 9000 FEW009 08/07 Q1028
10:50
V
8 °C 8 km - 210° 210° 8 kt METAR EDLV 200950Z 21008KT 8000 FEW008 08/06 Q1028
10:20
V
8 °C 8 km - 190° 190° 5 kt METAR EDLV 200920Z 19005KT 8000 NSC 08/06 Q1028
09:50
V
7 °C 8 km - 210° 210° 6 kt METAR EDLV 200850Z 21006KT 8000 NSC 07/06 Q1028
09:20
V
7 °C 8 km - 210° 210° 7 kt METAR EDLV 200820Z 21007KT 8000 NSC 07/06 Q1028
08:50
M
6 °C 7 km - 220° 220° 5 kt METAR EDLV 200750Z 22005KT 7000 NSC 06/06 Q1028
08:20
V
6 °C 8 km - 190° 190° 3 kt METAR EDLV 200720Z 19003KT 8000 NSC 06/05 Q1028
07:50
V
6 °C 9 km - 210° 210° 4 kt METAR EDLV 200650Z 21004KT 9000 NSC 06/05 Q1028
07:20
V
6 °C 9 km - 200° 200° 4 kt METAR EDLV 200620Z 20004KT 9000 SCT039 06/05 Q1028
06:50
V
5 °C 9 km 3.800 ft 210° 210° 5 kt METAR EDLV 200550Z 21005KT 9000 BKN038 05/05 Q1028
06:20
V
5 °C 10 km+ - 210° 210° 4 kt METAR EDLV 200520Z 21004KT 9999 FEW040 05/05 Q1028
05:50
V
5 °C 10 km+ - 210° 210° 4 kt METAR EDLV 200450Z 21004KT CAVOK 05/05 Q1028
05:20
V
6 °C 10 km+ - 230° 230° 3 kt METAR EDLV 200420Z 23003KT CAVOK 06/05 Q1028
04:50
V
6 °C 10 km+ 18.000 ft 240° 240° 4 kt METAR EDLV 200350Z AUTO 24004KT 9999 // FEW043/// BKN180/// BKN210/// 06/05 Q1028
04:20
V
6 °C 10 km+ 14.000 ft 240° 240° 4 kt METAR EDLV 200320Z AUTO 24004KT 9999 // BKN140/// BKN180/// 06/05 Q1028
03:50
V
6 °C 10 km+ 13.000 ft 250° 250° 4 kt METAR EDLV 200250Z AUTO 25004KT 9999 // BKN130/// OVC160/// 06/05 Q1028
03:20
V
6 °C 10 km+ 14.000 ft 240° 240° 4 kt METAR EDLV 200220Z AUTO 24004KT 210V270 9999 // BKN140/// 06/05 Q1028
02:50
V
6 °C 10 km+ 16.000 ft 260° 260° 5 kt METAR EDLV 200150Z AUTO 26005KT 9999 // FEW130/// BKN160/// 06/05 Q1028
02:20
V
6 °C 10 km+ 15.000 ft 250° 250° 4 kt METAR EDLV 200120Z AUTO 25004KT 220V280 9999 // FEW130/// OVC150/// 06/05 Q1028
01:50
V
6 °C 10 km+ 16.000 ft 250° 250° 4 kt METAR EDLV 200050Z AUTO 25004KT 9999 // BKN160/// BKN220/// 06/05 Q1027
01:20
V
6 °C 10 km+ 23.000 ft 260° 260° 4 kt METAR EDLV 200020Z AUTO 26004KT 9999 // BKN230/// 06/05 Q1027
00:50
V
6 °C 10 km+ 24.000 ft 260° 260° 5 kt METAR EDLV 192350Z AUTO 26005KT 9999 // BKN240/// 06/05 Q1027
00:20
V
6 °C 10 km+ - 250° 250° 5 kt METAR EDLV 192320Z AUTO 25005KT 9999 // NCD 06/05 Q1027

19 febbraio 2024

Tempo Codice Tempo meteorologico Temp. Vista Base nuvolosa Vento METAR/SPECI
23:50
V
6 °C 10 km+ - 250° 250° 4 kt METAR EDLV 192250Z AUTO 25004KT 9999 // FEW051/// 06/05 Q1027
23:20
V
6 °C 10 km+ - 250° 250° 5 kt METAR EDLV 192220Z AUTO 25005KT 9999 // FEW055/// 06/05 Q1027
22:50
V
7 °C 10 km+ - 270° 270° 5 kt METAR EDLV 192150Z 27005KT 240V300 CAVOK 07/05 Q1027
22:20
V
7 °C 10 km+ - 270° 270° 6 kt METAR EDLV 192120Z 27006KT 240V300 CAVOK 07/06 Q1027
21:50
V
8 °C 10 km+ - 280° 280° 7 kt METAR EDLV 192050Z 28007KT 250V310 9999 FEW021 08/06 Q1026
21:20
M
8 °C 10 km+ 1.500 ft 280° 280° 9 kt METAR EDLV 192020Z 28009KT 260V320 9999 OVC015 08/06 Q1026
20:50
M
9 °C 10 km+ 1.300 ft 280° 280° 9 kt METAR EDLV 191950Z 28009KT 250V320 9999 BKN013 BKN016 09/07 Q1026
20:20
M
9 °C 10 km+ 1.200 ft 290° 290° 9 kt METAR EDLV 191920Z 29009KT 260V320 9999 BKN012 09/07 Q1026
19:50
M
9 °C 10 km+ 1.000 ft 280° 280° 10 kt METAR EDLV 191850Z 28010KT 250V310 9999 BKN010 BKN014 OVC016 09/08 Q1025
19:20
M
9 °C 10 km+ 1.400 ft 260° 260° 8 kt METAR EDLV 191820Z 26008KT 9999 FEW009 BKN014 BKN021 09/08 Q1025
18:50
M
9 °C 10 km+ 1.000 ft 250° 250° 8 kt METAR EDLV 191750Z 25008KT 9999 -RA FEW006 BKN010 OVC014 09/08 Q1025
18:20
M
9 °C 9 km 1.000 ft 240° 240° 8 kt METAR EDLV 191720Z 24008KT 9000 FEW007 BKN010 OVC020 09/08 Q1025
17:50
M
9 °C 8 km 1.000 ft 240° 240° 8 kt METAR EDLV 191650Z 24008KT 8000 -RA FEW008 BKN010 OVC017 09/08 Q1025
17:20
M
10 °C 10 km+ 1.200 ft 240° 240° 9 kt METAR EDLV 191620Z 24009KT 9999 -RA BKN012 BKN046 10/08 Q1025
16:50
M
10 °C 9 km 1.100 ft 250° 250° 9 kt METAR EDLV 191550Z 25009KT 9000 -RA BKN011 BKN018 OVC021 10/08 Q1025
16:20
M
10 °C 10 km+ 1.100 ft 260° 260° 11 kt METAR EDLV 191520Z 26011KT 9999 BKN011 BKN018 OVC044 10/08 Q1025
15:50
M
10 °C 9 km 1.200 ft 240° 240° 9 kt METAR EDLV 191450Z 24009KT 9000 -SHRA BKN012 BKN020 OVC040 10/08 Q1025
15:20
M
10 °C 10 km+ 1.500 ft 220° 220° 11 kt METAR EDLV 191420Z 22011KT 9999 BKN015 OVC023 10/08 Q1025
14:50
M
11 °C 10 km+ 2.300 ft 220° 220° 9 kt METAR EDLV 191350Z 22009KT 9999 SCT015 BKN023 OVC027 11/08 Q1025
14:20
V
11 °C 10 km+ 3.100 ft 230° 230° 11 kt METAR EDLV 191320Z 23011KT 9999 -RA SCT016 BKN031 OVC040 11/08 Q1025
13:50
V
11 °C 10 km+ 4.900 ft 240° 240° 11 kt METAR EDLV 191250Z 24011KT 210V270 9999 SCT016 OVC049 11/08 Q1025
13:20
V
11 °C 10 km+ 3.400 ft 240° 240° 9 kt METAR EDLV 191220Z 24009KT 9999 FEW015 BKN034 OVC048 11/08 Q1026
12:50
V
11 °C 10 km+ 4.700 ft 240° 240° 10 kt METAR EDLV 191150Z 24010KT 9999 FEW014 SCT038 BKN047 11/08 Q1026
12:20
V
11 °C 9 km 4.000 ft 240° 240° 10 kt METAR EDLV 191120Z 24010KT 9000 SCT014 BKN040 11/08 Q1026
11:50
V
11 °C 10 km+ - 240° 240° 9 kt METAR EDLV 191050Z 24009KT 9999 FEW012 11/08 Q1026
11:20
V
11 °C 10 km+ 4.100 ft 240° 240° 11 kt METAR EDLV 191020Z 24011KT 9999 FEW011 OVC041 11/08 Q1027
10:50
V
11 °C 10 km+ 4.400 ft 240° 240° 8 kt METAR EDLV 190950Z 24008KT 9999 FEW011 BKN044 11/08 Q1027
10:20
V
10 °C 10 km+ - 240° 240° 8 kt METAR EDLV 190920Z 24008KT CAVOK 10/08 Q1027
09:50
V
10 °C 10 km+ 4.900 ft 220° 220° 7 kt METAR EDLV 190850Z 22007KT 9999 OVC049 10/08 Q1027
09:20
V
9 °C 10 km+ 4.900 ft 230° 230° 7 kt METAR EDLV 190820Z 23007KT 9999 OVC049 09/07 Q1027
08:50
V
9 °C 10 km+ 4.500 ft 220° 220° 7 kt METAR EDLV 190750Z 22007KT 9999 FEW037 OVC045 09/07 Q1027
08:20
V
9 °C 10 km+ 4.400 ft 220° 220° 6 kt METAR EDLV 190720Z 22006KT 9999 OVC044 09/07 Q1027
07:50
V
8 °C 10 km+ 3.500 ft 220° 220° 6 kt METAR EDLV 190650Z 22006KT 9999 BKN035 OVC043 08/07 Q1027
07:20
V
8 °C 10 km+ 4.800 ft 230° 230° 5 kt METAR EDLV 190620Z 23005KT 9999 SCT037 SCT042 OVC048 08/07 Q1027
06:50
V
8 °C 9 km 3.500 ft 230° 230° 6 kt METAR EDLV 190550Z 23006KT 9000 FEW031 BKN035 OVC041 08/07 Q1027
06:20
V
8 °C 10 km+ 3.700 ft 240° 240° 5 kt METAR EDLV 190520Z 24005KT 9999 BKN037 OVC048 08/07 Q1027
05:50
V
8 °C 10 km+ 4.700 ft 250° 250° 5 kt METAR EDLV 190450Z 25005KT 220V280 9999 OVC047 08/07 Q1026
05:20
V
9 °C 10 km+ 4.500 ft 260° 260° 4 kt METAR EDLV 190420Z 26004KT 220V300 9999 FEW015 OVC045 09/07 Q1027
04:50
V
9 °C 10 km+ 4.500 ft 260° 260° 5 kt METAR EDLV 190350Z 26005KT 230V300 9999 FEW039 OVC045 09/07 Q1027
04:20
V
9 °C 10 km+ 4.200 ft 260° 260° 5 kt METAR EDLV 190320Z AUTO 26005KT 230V290 9999 // FEW033/// OVC042/// 09/07 Q1026
03:50
V
9 °C 10 km+ 3.400 ft 270° 270° 6 kt METAR EDLV 190250Z AUTO 27006KT 9999 // OVC034/// 09/07 Q1026
03:20
M
9 °C 10 km+ 2.800 ft 260° 260° 7 kt METAR EDLV 190220Z AUTO 26007KT 240V300 9999 // OVC028/// 09/07 Q1026
02:50
M
9 °C 10 km+ 2.500 ft 280° 280° 8 kt METAR EDLV 190150Z AUTO 28008KT 250V310 9999 // FEW019/// OVC025/// 09/07 Q1026
02:20
M
9 °C 10 km+ 2.600 ft 280° 280° 9 kt METAR EDLV 190120Z AUTO 28009KT 9999 // FEW011/// OVC026/// 09/08 Q1026
01:50
M
9 °C 10 km+ 2.400 ft 280° 280° 9 kt METAR EDLV 190050Z AUTO 28009KT 250V310 9999 // FEW011/// BKN024/// OVC028/// 09/08 Q1026
01:20
M
9 °C 10 km+ 1.000 ft 290° 290° 8 kt METAR EDLV 190020Z AUTO 29008KT 260V330 9999 // FEW008/// BKN010/// OVC030/// 09/08 Q1026
00:50
I
9 °C 10 km+ 800 ft 280° 280° 11 kt METAR EDLV 182350Z AUTO 28011KT 9999 // BKN008/// BKN018/// OVC023/// 09/08 Q1025
00:20
I
9 °C 8 km 600 ft 280° 280° 11 kt METAR EDLV 182320Z AUTO 28011KT 8000 // OVC006/// 09/08 Q1025

18 febbraio 2024

Tempo Codice Tempo meteorologico Temp. Vista Base nuvolosa Vento METAR/SPECI
23:50
I
9 °C 10 km+ 700 ft 280° 280° 10 kt METAR EDLV 182250Z AUTO 28010KT 9999 // OVC007/// 09/08 Q1024
23:20
I
9 °C 3,4 km 700 ft 270° 270° 10 kt METAR EDLV 182220Z AUTO 27010KT 240V300 3400 // BKN007/// OVC012/// 09/08 Q1024
22:50
I
9 °C 3,3 km 1.000 ft 270° 270° 11 kt METAR EDLV 182150Z 27011KT 3300 -RA BKN010 BKN016 OVC041 09/08 Q1023
22:20
I
9 °C 3,2 km 1.100 ft 260° 260° 12 kt METAR EDLV 182120Z 26012KT 3200 -RA BKN011 BKN044 09/08 Q1023
21:50
M
10 °C 6 km 1.000 ft 270° 270° 11 kt METAR EDLV 182050Z 27011KT 240V300 6000 -RA BKN010 OVC014 10/08 Q1023
21:20
I
10 °C 3,3 km 1.100 ft 260° 260° 12 kt METAR EDLV 182020Z 26012KT 3300 -RA BKN011 OVC018 10/08 Q1022
20:50
I
10 °C 3,4 km 1.300 ft 260° 260° 12 kt METAR EDLV 181950Z 26012KT 3400 -RA BKN013 OVC019 10/08 Q1022
20:20
I
10 °C 3,5 km 1.300 ft 260° 260° 10 kt METAR EDLV 181920Z 26010KT 3500 -RA BR BKN013 BKN016 OVC021 10/08 Q1022
19:50
I
10 °C 3,4 km 4.000 ft 270° 270° 13 kt METAR EDLV 181850Z 27013KT 230V290 3400 -RA SCT016 OVC040 10/08 Q1022
19:20
I
10 °C 3,1 km 1.800 ft 270° 270° 14 kt METAR EDLV 181820Z 27014KT 240V300 3100 BR SCT015 BKN018 OVC025 10/08 Q1021
18:50
I
11 °C 2,8 km 1.200 ft 270° 270° 15 - 25 kt METAR EDLV 181750Z 27015G25KT 240V300 2800 -RA BKN012 BKN019 11/09 Q1020
18:20
I
11 °C 2,3 km 1.100 ft 250° 250° 17 kt METAR EDLV 181720Z 25017KT 2300 -RA BKN011 OVC017 11/09 Q1020
17:50
M
11 °C 10 km+ 1.100 ft 240° 240° 15 - 28 kt METAR EDLV 181650Z 24015G28KT 9999 FEW006 BKN011 OVC021 11/10 Q1019
17:20
I
10 °C 3,2 km 500 ft 230° 230° 13 kt METAR EDLV 181620Z 23013KT 9000 3200 -DZ OVC005 10/10 Q1019
16:50
I
10 °C 3,8 km 600 ft 220° 220° 16 kt METAR EDLV 181550Z 22016KT 3800 -RA BKN006 OVC012 10/09 Q1019
16:20
I
10 °C 3,6 km 700 ft 210° 210° 17 - 27 kt METAR EDLV 181520Z 21017G27KT 8000 3600 -RA OVC007 10/09 Q1019
15:50
I
9 °C 10 km+ 800 ft 190° 190° 15 kt METAR EDLV 181450Z 19015KT 9999 OVC008 09/08 Q1019
15:20
M
9 °C 10 km+ 1.000 ft 190° 190° 14 kt METAR EDLV 181420Z 19014KT 9999 OVC010 09/08 Q1020
14:50
M
8 °C 7 km 1.300 ft 190° 190° 12 - 23 kt METAR EDLV 181350Z 19012G23KT 7000 -RA OVC013 08/07 Q1021
14:20
M
9 °C 9 km 2.000 ft 190° 190° 12 kt METAR EDLV 181320Z 19012KT 9000 -RA BKN020 OVC036 09/07 Q1021
13:50
M
9 °C 9 km 2.500 ft 170° 170° 12 kt METAR EDLV 181250Z 17012KT 9000 -RA OVC025 09/07 Q1022
13:20
V
9 °C 10 km+ - 170° 170° 11 kt METAR EDLV 181220Z 17011KT 9999 -RA FEW046 09/07 Q1022
12:50
V
9 °C 10 km+ - 170° 170° 12 kt METAR EDLV 181150Z 17012KT 9999 -RA FEW043 09/07 Q1023
12:20
V
8 °C 8 km 4.200 ft 180° 180° 11 kt METAR EDLV 181120Z 18011KT 8000 -RA BKN042 08/07 Q1024
11:50
V
8 °C 9 km 4.700 ft 180° 180° 11 kt METAR EDLV 181050Z 18011KT 9000 -RA BKN047 08/07 Q1025
11:20
V
8 °C 9 km - 180° 180° 10 kt METAR EDLV 181020Z 18010KT 9000 -RA NSC 08/06 Q1025
10:50
V
9 °C 9 km - 180° 180° 11 kt METAR EDLV 180950Z 18011KT 9000 -RA NSC 09/06 Q1026
10:20
V
9 °C 10 km+ - 190° 190° 12 kt METAR EDLV 180920Z 19012KT 9999 -RA NSC 09/06 Q1026
09:50
V
9 °C 10 km+ - 180° 180° 10 - 21 kt METAR EDLV 180850Z 18010G21KT 9999 -RA NSC 09/06 Q1026
09:20
V
9 °C 10 km+ - 180° 180° 10 kt METAR EDLV 180820Z 18010KT 9999 -RA NSC 09/06 Q1027
08:50
V
9 °C 10 km+ - 170° 170° 10 kt METAR EDLV 180750Z 17010KT 9999 -RA NSC 09/06 Q1027
08:20
V
9 °C 10 km+ - 170° 170° 10 kt METAR EDLV 180720Z 17010KT 9999 -RA NSC 09/06 Q1027
07:50
V
9 °C 10 km+ - 170° 170° 9 kt METAR EDLV 180650Z 17009KT 9999 -RA NSC 09/06 Q1028
07:20
V
9 °C 10 km+ - 180° 180° 8 kt METAR EDLV 180620Z 18008KT 9999 -RA NSC 09/06 Q1028
06:50
V
9 °C 10 km+ 4.700 ft 180° 180° 9 kt METAR EDLV 180550Z 18009KT 9999 -RA BKN047 09/06 Q1029